Time;durP1;ratioP1;P1;durP2;ratioP2;P2;SDS_P1;SDS_P2;PMS_P1;PMS_P2;Temp;Humidity;BMP_temperature;BMP_pressure;BME280_temperature;BME280_humidity;BME280_pressure;Samples;Min_cycle;Max_cycle;Signal;HPM_P1;HPM_P2
2023/07/13 00:01:29;;;;;;;;;;;17.90;68.80;;;;;;5074308;28;19921;-42
2023/07/13 00:03:55;;;;;;;;;;;17.90;68.80;;;;;;5074261;28;20311;-42
2023/07/13 00:06:21;;;;;;;;;;;17.90;69.00;;;;;;5074540;28;20356;-37
2023/07/13 00:08:47;;;;;;;;;;;17.80;69.00;;;;;;5074552;28;20420;-34
2023/07/13 00:11:14;;;;;;;;;;;17.80;69.00;;;;;;5074189;28;19912;-36
2023/07/13 00:13:40;;;;;;;;;;;17.80;68.90;;;;;;5074316;28;19999;-36
2023/07/13 00:16:06;;;;;;;;;;;17.80;69.00;;;;;;5074210;28;19955;-34
2023/07/13 00:18:32;;;;;;;;;;;17.80;69.00;;;;;;5072948;28;19944;-42
2023/07/13 00:21:04;;;;;;;;;;;17.80;68.90;;;;;;5074242;28;19912;-39
2023/07/13 00:23:31;;;;;;;;;;;17.90;68.80;;;;;;5073036;28;19920;-40
2023/07/13 00:25:57;;;;;;;;;;;17.90;68.80;;;;;;5074214;28;19919;-34
2023/07/13 00:28:22;;;;;;;;;;;17.90;68.80;;;;;;5074099;28;19913;-41
2023/07/13 00:30:48;;;;;;;;;;;17.90;68.60;;;;;;5073594;28;20291;-35
2023/07/13 00:33:13;;;;;;;;;;;18.00;68.60;;;;;;5073928;28;19913;-40
2023/07/13 00:35:39;;;;;;;;;;;18.00;68.70;;;;;;5073482;28;19920;-36
2023/07/13 00:38:05;;;;;;;;;;;17.90;68.60;;;;;;5073943;28;19912;-42
2023/07/13 00:40:30;;;;;;;;;;;17.90;68.70;;;;;;5073953;28;19912;-35
2023/07/13 00:42:57;;;;;;;;;;;17.90;68.80;;;;;;5073642;28;20372;-35
2023/07/13 00:45:22;;;;;;;;;;;17.90;68.80;;;;;;5073747;28;20283;-35
2023/07/13 00:47:48;;;;;;;;;;;17.80;68.80;;;;;;5073486;28;20054;-35
2023/07/13 00:50:14;;;;;;;;;;;17.80;68.90;;;;;;5073302;28;20387;-37
2023/07/13 00:52:43;;;;;;;;;;;17.80;68.90;;;;;;5073362;28;19917;-39
2023/07/13 00:55:09;;;;;;;;;;;17.70;68.90;;;;;;5073166;28;19924;-35
2023/07/13 00:57:34;;;;;;;;;;;17.80;69.00;;;;;;5073455;28;19912;-35
2023/07/13 01:00:06;;;;;;;;;;;17.70;69.00;;;;;;5073220;28;20368;-34
2023/07/13 01:02:32;;;;;;;;;;;17.70;69.10;;;;;;5073296;28;20399;-35
2023/07/13 01:04:58;;;;;;;;;;;17.60;69.10;;;;;;5072397;28;19912;-34
2023/07/13 01:07:24;;;;;;;;;;;17.60;69.20;;;;;;5073907;28;20245;-34
2023/07/13 01:09:49;;;;;;;;;;;17.60;69.20;;;;;;5073607;28;19936;-34
2023/07/13 01:12:15;;;;;;;;;;;17.60;69.20;;;;;;5073923;28;19955;-35
2023/07/13 01:14:40;;;;;;;;;;;17.60;69.30;;;;;;5073480;28;19917;-35
2023/07/13 01:17:08;;;;;;;;;;;17.60;69.30;;;;;;5073979;28;20008;-35
2023/07/13 01:19:42;;;;;;;;;;;17.50;69.30;;;;;;5073482;28;19947;-34
2023/07/13 01:22:11;;;;;;;;;;;17.50;69.30;;;;;;5073443;28;19916;-36
2023/07/13 01:24:38;;;;;;;;;;;17.50;69.40;;;;;;5073503;28;19963;-35
2023/07/13 01:27:05;;;;;;;;;;;17.50;69.40;;;;;;5073364;28;19913;-34
2023/07/13 01:29:32;;;;;;;;;;;17.50;69.40;;;;;;5073482;28;19912;-35
2023/07/13 01:31:57;;;;;;;;;;;17.40;69.40;;;;;;5073303;28;20062;-35
2023/07/13 01:34:23;;;;;;;;;;;17.40;69.40;;;;;;5073273;28;20023;-35
2023/07/13 01:36:48;;;;;;;;;;;17.40;69.40;;;;;;5073027;28;19913;-33
2023/07/13 01:39:15;;;;;;;;;;;17.40;69.50;;;;;;5073421;28;19931;-33
2023/07/13 01:41:40;;;;;;;;;;;17.40;69.60;;;;;;5073462;28;19943;-39
2023/07/13 01:44:06;;;;;;;;;;;17.30;69.50;;;;;;5073195;28;19916;-34
2023/07/13 01:46:31;;;;;;;;;;;17.30;69.50;;;;;;5073095;28;20015;-34
2023/07/13 01:48:57;;;;;;;;;;;17.40;69.60;;;;;;5072905;28;19912;-35
2023/07/13 01:51:24;;;;;;;;;;;17.40;69.50;;;;;;5072990;28;19959;-35
2023/07/13 01:53:49;;;;;;;;;;;17.40;69.50;;;;;;5072932;28;19916;-35
2023/07/13 01:56:15;;;;;;;;;;;17.40;69.50;;;;;;5073312;28;19927;-34
2023/07/13 01:58:40;;;;;;;;;;;17.40;69.60;;;;;;5073234;28;19913;-35
2023/07/13 02:01:06;;;;;;;;;;;17.30;69.50;;;;;;5072983;28;20370;-34
2023/07/13 02:03:31;;;;;;;;;;;17.30;69.60;;;;;;5072913;28;19913;-36
2023/07/13 02:05:57;;;;;;;;;;;17.30;69.80;;;;;;5072870;28;20030;-35
2023/07/13 02:08:22;;;;;;;;;;;17.20;69.80;;;;;;5073150;28;20380;-34
2023/07/13 02:10:48;;;;;;;;;;;17.20;69.90;;;;;;5072792;28;19924;-34
2023/07/13 02:13:13;;;;;;;;;;;17.20;70.00;;;;;;5072926;28;19958;-34
2023/07/13 02:15:40;;;;;;;;;;;17.10;70.10;;;;;;5072575;28;19917;-35
2023/07/13 02:18:06;;;;;;;;;;;17.10;70.20;;;;;;5072764;28;19919;-35
2023/07/13 02:20:31;;;;;;;;;;;17.10;70.20;;;;;;5072714;28;20352;-36
2023/07/13 02:22:57;;;;;;;;;;;17.00;70.20;;;;;;5072703;28;19913;-35
2023/07/13 02:25:23;;;;;;;;;;;17.10;70.30;;;;;;5072903;28;19912;-35
2023/07/13 02:27:48;;;;;;;;;;;17.00;70.30;;;;;;5072790;28;19995;-35
2023/07/13 02:30:14;;;;;;;;;;;17.00;70.40;;;;;;5072419;28;19971;-35
2023/07/13 02:32:39;;;;;;;;;;;17.00;70.50;;;;;;5071173;28;19920;-35
2023/07/13 02:35:05;;;;;;;;;;;16.90;70.50;;;;;;5072333;28;19920;-34
2023/07/13 02:37:30;;;;;;;;;;;16.90;70.60;;;;;;5072385;28;20249;-34
2023/07/13 02:39:56;;;;;;;;;;;16.90;70.70;;;;;;5072459;28;19962;-36
2023/07/13 02:42:21;;;;;;;;;;;16.80;70.70;;;;;;5072656;28;19912;-36
2023/07/13 02:44:47;;;;;;;;;;;16.80;70.90;;;;;;5072371;28;19913;-35
2023/07/13 02:47:13;;;;;;;;;;;16.80;70.90;;;;;;5074146;28;19951;-38
2023/07/13 02:49:38;;;;;;;;;;;16.80;70.90;;;;;;5076458;28;19955;-34
2023/07/13 02:52:04;;;;;;;;;;;16.80;70.90;;;;;;5076430;28;19913;-32
2023/07/13 02:54:30;;;;;;;;;;;16.80;71.10;;;;;;5076229;28;19917;-35
2023/07/13 02:56:55;;;;;;;;;;;16.70;71.00;;;;;;5076418;28;19912;-36
2023/07/13 02:59:21;;;;;;;;;;;16.70;71.10;;;;;;5076266;28;19916;-35
2023/07/13 03:01:46;;;;;;;;;;;16.70;71.10;;;;;;5076368;28;19912;-35
2023/07/13 03:04:12;;;;;;;;;;;16.70;71.20;;;;;;5076235;28;19912;-35
2023/07/13 03:06:37;;;;;;;;;;;16.70;71.30;;;;;;5076481;28;20253;-35
2023/07/13 03:09:03;;;;;;;;;;;16.60;71.30;;;;;;5076194;28;20304;-34
2023/07/13 03:11:29;;;;;;;;;;;16.60;71.50;;;;;;5076072;28;19920;-36
2023/07/13 03:13:55;;;;;;;;;;;16.60;71.50;;;;;;5075932;28;19990;-35
2023/07/13 03:16:20;;;;;;;;;;;16.50;71.70;;;;;;5076006;28;19966;-33
2023/07/13 03:18:46;;;;;;;;;;;16.50;71.70;;;;;;5075720;28;19962;-35
2023/07/13 03:21:12;;;;;;;;;;;16.50;71.90;;;;;;5076025;28;19913;-33
2023/07/13 03:23:37;;;;;;;;;;;16.50;71.80;;;;;;5075972;28;19927;-36
2023/07/13 03:26:03;;;;;;;;;;;16.50;71.90;;;;;;5075834;28;20354;-34
2023/07/13 03:28:28;;;;;;;;;;;16.50;71.90;;;;;;5075696;28;19912;-36
2023/07/13 03:31:04;;;;;;;;;;;16.50;71.90;;;;;;5075751;28;19917;-34
2023/07/13 03:33:30;;;;;;;;;;;16.50;72.00;;;;;;5075668;28;19965;-35
2023/07/13 03:35:56;;;;;;;;;;;16.50;72.10;;;;;;5075552;28;19978;-34
2023/07/13 03:38:21;;;;;;;;;;;16.50;72.00;;;;;;5074554;28;19958;-34
2023/07/13 03:40:47;;;;;;;;;;;16.40;72.00;;;;;;5075449;28;20015;-35
2023/07/13 03:43:12;;;;;;;;;;;16.40;72.20;;;;;;5075573;28;20435;-35
2023/07/13 03:45:38;;;;;;;;;;;16.40;72.30;;;;;;5075428;28;19917;-34
2023/07/13 03:48:04;;;;;;;;;;;16.40;72.30;;;;;;5075469;28;20023;-33
2023/07/13 03:50:30;;;;;;;;;;;16.40;72.40;;;;;;5075271;28;19913;-35
2023/07/13 03:52:57;;;;;;;;;;;16.40;72.40;;;;;;5075258;28;20394;-35
2023/07/13 03:55:22;;;;;;;;;;;16.40;72.40;;;;;;5075201;28;20011;-33
2023/07/13 03:57:52;;;;;;;;;;;16.40;72.40;;;;;;5073633;28;20026;-36
2023/07/13 04:00:18;;;;;;;;;;;16.40;72.40;;;;;;5075184;28;20383;-36
2023/07/13 04:02:43;;;;;;;;;;;16.40;72.40;;;;;;5075015;28;19954;-35
2023/07/13 04:05:09;;;;;;;;;;;16.40;72.40;;;;;;5075105;28;19912;-36
2023/07/13 04:07:34;;;;;;;;;;;16.50;72.50;;;;;;5074972;28;20282;-35
2023/07/13 04:09:59;;;;;;;;;;;16.40;72.40;;;;;;5074956;28;19938;-34
2023/07/13 04:12:25;;;;;;;;;;;16.40;72.50;;;;;;5074909;28;19913;-34
2023/07/13 04:14:51;;;;;;;;;;;16.40;72.60;;;;;;5074823;28;19923;-34
2023/07/13 04:17:16;;;;;;;;;;;16.40;72.60;;;;;;5074717;28;19917;-36
2023/07/13 04:19:42;;;;;;;;;;;16.40;73.30;;;;;;5074791;28;19916;-35
2023/07/13 04:22:07;;;;;;;;;;;16.40;72.70;;;;;;5074714;28;20353;-37
2023/07/13 04:24:33;;;;;;;;;;;16.40;72.70;;;;;;5074869;28;20422;-35
2023/07/13 04:27:00;;;;;;;;;;;16.40;72.80;;;;;;5074726;28;19974;-36
2023/07/13 04:29:25;;;;;;;;;;;16.50;72.90;;;;;;5074492;28;19947;-35
2023/07/13 04:31:51;;;;;;;;;;;16.40;72.80;;;;;;5074864;28;20372;-36
2023/07/13 04:34:16;;;;;;;;;;;16.50;72.80;;;;;;5074413;28;19970;-34
2023/07/13 04:36:42;;;;;;;;;;;16.50;72.90;;;;;;5074588;28;19913;-36
2023/07/13 04:39:08;;;;;;;;;;;16.50;72.90;;;;;;5074538;28;19912;-36
2023/07/13 04:41:34;;;;;;;;;;;16.60;73.00;;;;;;5074938;28;20433;-35
2023/07/13 04:43:59;;;;;;;;;;;16.70;73.00;;;;;;5074262;28;19960;-35
2023/07/13 04:46:25;;;;;;;;;;;16.70;72.80;;;;;;5074158;28;19912;-34
2023/07/13 04:48:53;;;;;;;;;;;16.80;72.80;;;;;;5074367;28;19919;-35
2023/07/13 04:51:18;;;;;;;;;;;16.80;72.60;;;;;;5074470;28;20015;-34
2023/07/13 04:53:44;;;;;;;;;;;16.90;72.60;;;;;;5074214;28;19940;-36
2023/07/13 04:56:09;;;;;;;;;;;16.90;72.80;;;;;;5074164;28;20391;-36
2023/07/13 04:58:34;;;;;;;;;;;17.00;72.80;;;;;;5073928;28;19912;-36
2023/07/13 05:01:04;;;;;;;;;;;17.00;72.80;;;;;;5074231;28;19959;-36
2023/07/13 05:03:30;;;;;;;;;;;17.00;72.80;;;;;;5072950;28;19937;-43
2023/07/13 05:05:59;;;;;;;;;;;17.00;72.80;;;;;;5073928;28;20011;-37
2023/07/13 05:08:25;;;;;;;;;;;17.10;72.80;;;;;;5073235;28;19912;-33
2023/07/13 05:10:51;;;;;;;;;;;17.10;72.80;;;;;;5073770;28;19936;-36
2023/07/13 05:13:16;;;;;;;;;;;17.20;72.70;;;;;;5073884;28;19916;-34
2023/07/13 05:15:42;;;;;;;;;;;17.30;72.70;;;;;;5073729;28;20537;-36
2023/07/13 05:18:07;;;;;;;;;;;17.30;72.60;;;;;;5073696;28;19912;-34
2023/07/13 05:20:33;;;;;;;;;;;17.40;72.50;;;;;;5073881;28;19935;-36
2023/07/13 05:22:58;;;;;;;;;;;17.50;72.50;;;;;;5073650;28;19916;-34
2023/07/13 05:25:24;;;;;;;;;;;17.50;72.80;;;;;;5072290;28;19917;-35
2023/07/13 05:27:49;;;;;;;;;;;17.50;72.60;;;;;;5073520;28;20415;-35
2023/07/13 05:30:15;;;;;;;;;;;17.50;72.50;;;;;;5073245;28;19916;-34
2023/07/13 05:32:40;;;;;;;;;;;17.60;72.50;;;;;;5073680;28;20380;-35
2023/07/13 05:35:06;;;;;;;;;;;17.60;72.50;;;;;;5073462;28;19920;-36
2023/07/13 05:37:32;;;;;;;;;;;17.70;72.60;;;;;;5073454;28;19912;-36
2023/07/13 05:39:57;;;;;;;;;;;17.70;72.50;;;;;;5073554;28;19912;-36
2023/07/13 05:42:23;;;;;;;;;;;17.70;72.50;;;;;;5073501;28;19912;-36
2023/07/13 05:44:48;;;;;;;;;;;17.70;72.60;;;;;;5073362;28;19919;-34
2023/07/13 05:47:14;;;;;;;;;;;17.80;72.70;;;;;;5073392;28;19912;-35
2023/07/13 05:49:40;;;;;;;;;;;17.80;72.70;;;;;;5073097;28;19919;-36
2023/07/13 05:52:06;;;;;;;;;;;17.80;72.60;;;;;;5073044;28;19912;-34
2023/07/13 05:54:31;;;;;;;;;;;17.80;72.40;;;;;;5073003;28;19916;-36
2023/07/13 05:56:57;;;;;;;;;;;17.90;72.40;;;;;;5073039;28;20307;-42
2023/07/13 05:59:22;;;;;;;;;;;18.00;72.40;;;;;;5073309;28;19991;-36
2023/07/13 06:01:48;;;;;;;;;;;18.00;72.60;;;;;;5073164;28;19970;-35
2023/07/13 06:04:14;;;;;;;;;;;18.00;72.50;;;;;;5072767;28;20478;-36
2023/07/13 06:06:39;;;;;;;;;;;18.10;72.40;;;;;;5071483;28;19912;-35
2023/07/13 06:09:05;;;;;;;;;;;18.10;72.80;;;;;;5073078;28;20526;-36
2023/07/13 06:11:30;;;;;;;;;;;18.10;72.60;;;;;;5072828;28;19920;-34
2023/07/13 06:13:56;;;;;;;;;;;18.20;72.60;;;;;;5072839;28;19916;-34
2023/07/13 06:16:22;;;;;;;;;;;18.20;72.60;;;;;;5072881;28;19916;-38
2023/07/13 06:18:48;;;;;;;;;;;18.30;72.80;;;;;;5072763;28;19924;-36
2023/07/13 06:21:15;;;;;;;;;;;18.20;72.80;;;;;;5072710;28;19912;-35
2023/07/13 06:23:41;;;;;;;;;;;18.30;72.90;;;;;;5072703;28;19919;-35
2023/07/13 06:26:07;;;;;;;;;;;18.20;73.00;;;;;;5072746;28;20378;-34
2023/07/13 06:28:35;;;;;;;;;;;18.30;73.30;;;;;;5072568;28;19916;-37
2023/07/13 06:31:01;;;;;;;;;;;18.20;73.10;;;;;;5072618;28;19993;-33
2023/07/13 06:33:27;;;;;;;;;;;18.30;73.10;;;;;;5072824;28;19916;-36
2023/07/13 06:35:54;;;;;;;;;;;18.40;73.20;;;;;;5072530;28;19920;-35
2023/07/13 06:38:20;;;;;;;;;;;18.40;73.00;;;;;;5072568;28;20291;-36
2023/07/13 06:40:45;;;;;;;;;;;18.50;73.30;;;;;;5072820;28;19912;-38
2023/07/13 06:43:11;;;;;;;;;;;18.50;73.20;;;;;;5071244;28;19920;-34
2023/07/13 06:45:45;;;;;;;;;;;18.50;73.40;;;;;;5072441;28;19924;-36
2023/07/13 06:48:11;;;;;;;;;;;18.60;73.40;;;;;;5072534;28;19916;-35
2023/07/13 06:50:37;;;;;;;;;;;18.70;73.30;;;;;;5072413;28;19916;-35
2023/07/13 06:53:04;;;;;;;;;;;18.70;73.30;;;;;;5072256;28;19991;-33
2023/07/13 06:55:29;;;;;;;;;;;18.80;73.20;;;;;;5072217;28;19916;-36
2023/07/13 06:57:55;;;;;;;;;;;18.90;73.00;;;;;;5072395;28;19965;-34
2023/07/13 07:00:21;;;;;;;;;;;18.90;73.30;;;;;;5072566;28;19913;-36
2023/07/13 07:02:46;;;;;;;;;;;18.90;73.10;;;;;;5070918;28;20372;-35
2023/07/13 07:05:11;;;;;;;;;;;19.00;73.20;;;;;;5072496;28;19961;-34
2023/07/13 07:07:37;;;;;;;;;;;19.10;73.40;;;;;;5072318;28;19919;-40
2023/07/13 07:10:03;;;;;;;;;;;19.10;73.20;;;;;;5072321;28;19934;-34
2023/07/13 07:12:28;;;;;;;;;;;19.10;73.50;;;;;;5072380;28;19920;-35
2023/07/13 07:14:54;;;;;;;;;;;19.10;73.20;;;;;;5072141;28;19917;-35
2023/07/13 07:17:19;;;;;;;;;;;19.10;73.10;;;;;;5072545;28;19958;-38
2023/07/13 07:19:45;;;;;;;;;;;19.20;73.20;;;;;;5072331;28;20363;-32
2023/07/13 07:22:10;;;;;;;;;;;19.30;73.10;;;;;;5072552;28;19974;-37
2023/07/13 07:24:36;;;;;;;;;;;19.40;73.00;;;;;;5072136;28;20375;-33
2023/07/13 07:27:01;;;;;;;;;;;19.50;72.80;;;;;;5072035;28;19919;-35
2023/07/13 07:29:27;;;;;;;;;;;19.50;72.70;;;;;;5071926;28;19924;-35
2023/07/13 07:31:53;;;;;;;;;;;19.60;72.70;;;;;;5072919;28;19917;-38
2023/07/13 07:34:18;;;;;;;;;;;19.60;72.70;;;;;;5074240;28;19986;-35
2023/07/13 07:36:44;;;;;;;;;;;19.60;72.80;;;;;;5075597;28;19920;-35
2023/07/13 07:39:09;;;;;;;;;;;19.60;72.90;;;;;;5075717;28;19912;-37
2023/07/13 07:41:35;;;;;;;;;;;19.60;72.80;;;;;;5075738;28;20280;-35
2023/07/13 07:44:01;;;;;;;;;;;19.60;72.70;;;;;;5075766;28;19912;-34
2023/07/13 07:46:26;;;;;;;;;;;19.60;72.90;;;;;;5075578;28;20007;-36
2023/07/13 07:48:51;;;;;;;;;;;19.60;72.80;;;;;;5075428;28;19916;-35
2023/07/13 07:51:17;;;;;;;;;;;19.70;72.60;;;;;;5075357;28;19923;-37
2023/07/13 07:53:42;;;;;;;;;;;19.90;72.40;;;;;;5075395;28;19946;-36
2023/07/13 07:56:09;;;;;;;;;;;20.00;72.20;;;;;;5075253;28;20279;-35
2023/07/13 07:58:35;;;;;;;;;;;20.10;72.00;;;;;;5075234;28;20369;-35
2023/07/13 08:01:05;;;;;;;;;;;20.10;71.90;;;;;;5075110;28;20000;-35
2023/07/13 08:03:30;;;;;;;;;;;20.10;71.80;;;;;;5075132;28;20003;-34
2023/07/13 08:05:56;;;;;;;;;;;20.20;71.70;;;;;;5075275;28;20372;-35
2023/07/13 08:08:21;;;;;;;;;;;20.20;71.70;;;;;;5075124;28;19908;-36
2023/07/13 08:10:47;;;;;;;;;;;20.30;71.60;;;;;;5073579;28;19915;-35
2023/07/13 08:13:13;;;;;;;;;;;20.40;71.40;;;;;;5075324;28;19913;-35
2023/07/13 08:15:38;;;;;;;;;;;20.60;71.30;;;;;;5074948;28;19955;-36
2023/07/13 08:18:04;;;;;;;;;;;20.70;71.00;;;;;;5074906;28;19908;-36
2023/07/13 08:20:29;;;;;;;;;;;20.60;71.20;;;;;;5074634;28;19969;-35
2023/07/13 08:22:55;;;;;;;;;;;20.60;71.30;;;;;;5074906;28;19919;-36
2023/07/13 08:25:21;;;;;;;;;;;20.60;71.30;;;;;;5074675;28;19909;-34
2023/07/13 08:27:47;;;;;;;;;;;20.70;71.30;;;;;;5074705;28;19908;-36
2023/07/13 08:30:12;;;;;;;;;;;20.70;71.40;;;;;;5074540;28;20007;-35
2023/07/13 08:32:38;;;;;;;;;;;20.80;71.20;;;;;;5074587;28;20322;-35
2023/07/13 08:35:04;;;;;;;;;;;20.90;71.00;;;;;;5074039;28;20329;-36
2023/07/13 08:37:30;;;;;;;;;;;20.90;70.80;;;;;;5073639;28;20573;-46
2023/07/13 08:39:55;;;;;;;;;;;21.10;70.60;;;;;;5073646;28;19909;-34
2023/07/13 08:42:36;;;;;;;;;;;21.20;70.40;;;;;;5073450;28;20338;-38
2023/07/13 08:45:06;;;;;;;;;;;21.30;70.00;;;;;;5072314;28;19908;-34
2023/07/13 08:47:34;;;;;;;;;;;21.50;69.80;;;;;;5073613;28;19915;-34
2023/07/13 08:50:01;;;;;;;;;;;21.60;69.30;;;;;;5074145;28;19908;-33
2023/07/13 08:52:37;;;;;;;;;;;21.60;69.20;;;;;;5074214;28;19920;-35
2023/07/13 08:55:15;;;;;;;;;;;21.60;69.10;;;;;;5074082;28;20275;-36
2023/07/13 08:57:41;;;;;;;;;;;21.40;69.30;;;;;;5074123;28;19908;-34
2023/07/13 09:00:12;;;;;;;;;;;21.30;69.60;;;;;;5073996;28;19920;-36
2023/07/13 09:02:53;;;;;;;;;;;21.10;69.90;;;;;;5074129;28;19923;-39
2023/07/13 09:05:26;;;;;;;;;;;20.90;70.00;;;;;;5073969;28;20328;-43
2023/07/13 09:08:00;;;;;;;;;;;20.80;70.20;;;;;;5074321;28;19908;-34
2023/07/13 09:10:36;;;;;;;;;;;20.80;70.30;;;;;;5074009;28;19909;-39
2023/07/13 09:13:22;;;;;;;;;;;20.90;70.00;;;;;;5073961;28;19958;-48
2023/07/13 09:15:48;;;;;;;;;;;21.10;69.70;;;;;;5073564;28;19912;-35
2023/07/13 09:18:19;;;;;;;;;;;21.30;69.30;;;;;;5073552;28;19916;-37
2023/07/13 09:20:44;;;;;;;;;;;21.50;68.30;;;;;;5073646;28;19999;-35
2023/07/13 09:23:14;;;;;;;;;;;21.50;68.10;;;;;;5073727;28;19947;-36
2023/07/13 09:25:40;;;;;;;;;;;21.60;67.90;;;;;;5073451;28;19909;-35
2023/07/13 09:28:09;;;;;;;;;;;21.70;67.40;;;;;;5073775;28;19916;-35
2023/07/13 09:30:53;;;;;;;;;;;21.80;67.20;;;;;;5073476;28;19998;-35
2023/07/13 09:33:19;;;;;;;;;;;21.80;67.10;;;;;;5073496;28;19912;-35
2023/07/13 09:35:45;;;;;;;;;;;21.90;66.80;;;;;;5073281;28;19969;-36
2023/07/13 09:38:10;;;;;;;;;;;21.70;66.90;;;;;;5073542;28;20356;-36
2023/07/13 09:40:40;;;;;;;;;;;21.60;67.10;;;;;;5071914;28;19915;-34
2023/07/13 09:43:07;;;;;;;;;;;21.40;68.10;;;;;;5073235;28;19909;-37
2023/07/13 09:45:33;;;;;;;;;;;21.00;68.80;;;;;;5073244;28;19920;-34
2023/07/13 09:48:07;;;;;;;;;;;20.70;69.30;;;;;;5073205;28;19912;-35
2023/07/13 09:50:33;;;;;;;;;;;20.40;69.50;;;;;;5073086;28;19912;-35
2023/07/13 09:53:01;;;;;;;;;;;20.20;69.80;;;;;;5073000;28;19908;-36
2023/07/13 09:55:32;;;;;;;;;;;20.00;70.00;;;;;;5072888;28;20019;-34
2023/07/13 09:58:02;;;;;;;;;;;19.90;70.40;;;;;;5073198;28;20444;-35
2023/07/13 10:00:29;;;;;;;;;;;19.90;70.60;;;;;;5072914;28;19912;-35
2023/07/13 10:03:03;;;;;;;;;;;19.80;70.80;;;;;;5072892;28;20042;-35
2023/07/13 10:05:37;;;;;;;;;;;19.80;70.90;;;;;;5073285;28;19936;-38
2023/07/13 10:08:02;;;;;;;;;;;19.80;71.30;;;;;;5071637;28;19909;-36
2023/07/13 10:10:28;;;;;;;;;;;19.70;71.30;;;;;;5073004;28;20051;-34
2023/07/13 10:12:53;;;;;;;;;;;19.70;71.50;;;;;;5072860;28;19909;-37
2023/07/13 10:15:21;;;;;;;;;;;19.70;71.60;;;;;;5072689;28;19912;-36
2023/07/13 10:17:47;;;;;;;;;;;19.70;71.70;;;;;;5072713;28;20387;-36
2023/07/13 10:20:12;;;;;;;;;;;19.80;71.80;;;;;;5072684;28;19909;-35
2023/07/13 10:22:46;;;;;;;;;;;19.90;71.90;;;;;;5072759;28;19962;-36
2023/07/13 10:25:16;;;;;;;;;;;19.90;71.70;;;;;;5072816;28;19931;-34
2023/07/13 10:27:42;;;;;;;;;;;20.00;71.70;;;;;;5072602;28;20374;-32
2023/07/13 10:30:34;;;;;;;;;;;20.20;71.50;;;;;;5072412;28;19924;-35
2023/07/13 10:33:02;;;;;;;;;;;20.30;71.20;;;;;;5072434;28;19912;-34
2023/07/13 10:35:28;;;;;;;;;;;20.50;70.90;;;;;;5071272;28;19923;-35
2023/07/13 10:37:54;;;;;;;;;;;20.80;70.50;;;;;;5072542;28;19909;-35
2023/07/13 10:40:24;;;;;;;;;;;20.90;70.10;;;;;;5072860;28;19953;-36
2023/07/13 10:42:52;;;;;;;;;;;21.00;69.80;;;;;;5072563;28;19935;-36
2023/07/13 10:45:19;;;;;;;;;;;21.00;69.80;;;;;;5071266;28;20366;-35
2023/07/13 10:47:45;;;;;;;;;;;21.00;69.20;;;;;;5072342;28;20401;-34
2023/07/13 10:50:20;;;;;;;;;;;20.90;69.10;;;;;;5072629;28;20011;-36
2023/07/13 10:52:50;;;;;;;;;;;20.80;69.30;;;;;;5072464;28;19916;-33
2023/07/13 10:55:35;;;;;;;;;;;20.60;70.00;;;;;;5072344;28;19913;-33
2023/07/13 10:58:21;;;;;;;;;;;20.40;70.70;;;;;;5072105;28;19991;-35
2023/07/13 11:00:48;;;;;;;;;;;20.30;71.40;;;;;;5072091;28;19908;-35
2023/07/13 11:03:15;;;;;;;;;;;20.40;71.80;;;;;;5072111;28;19952;-35
2023/07/13 11:05:41;;;;;;;;;;;20.50;71.80;;;;;;5072178;28;19920;-35
2023/07/13 11:08:16;;;;;;;;;;;20.60;71.60;;;;;;5074926;28;19918;-37
2023/07/13 11:10:49;;;;;;;;;;;20.80;71.40;;;;;;5076012;28;19913;-37
2023/07/13 11:13:33;;;;;;;;;;;21.00;71.20;;;;;;5076071;28;19916;-38
2023/07/13 11:15:58;;;;;;;;;;;21.30;71.00;;;;;;5075885;28;19920;-33
2023/07/13 11:18:25;;;;;;;;;;;21.40;70.60;;;;;;5075949;28;19923;-36
2023/07/13 11:20:50;;;;;;;;;;;21.60;70.50;;;;;;5075818;28;19908;-35
2023/07/13 11:23:17;;;;;;;;;;;21.70;70.50;;;;;;5075836;28;20005;-35
2023/07/13 11:25:43;;;;;;;;;;;21.60;70.30;;;;;;5075969;28;20356;-35
2023/07/13 11:28:11;;;;;;;;;;;21.50;70.20;;;;;;5075634;28;19952;-35
2023/07/13 11:30:40;;;;;;;;;;;21.40;70.20;;;;;;5074233;28;19921;-33
2023/07/13 11:33:17;;;;;;;;;;;21.20;69.70;;;;;;5075658;28;19914;-36
2023/07/13 11:35:51;;;;;;;;;;;21.20;69.90;;;;;;5075271;28;20332;-36
2023/07/13 11:38:18;;;;;;;;;;;21.30;69.90;;;;;;5075549;28;19931;-35
2023/07/13 11:40:45;;;;;;;;;;;21.30;69.70;;;;;;5075415;28;20298;-36
2023/07/13 11:43:13;;;;;;;;;;;21.50;68.60;;;;;;5075503;28;20245;-35
2023/07/13 11:45:38;;;;;;;;;;;21.60;68.00;;;;;;5075469;28;19908;-35
2023/07/13 11:48:04;;;;;;;;;;;21.70;67.60;;;;;;5075353;28;19961;-35
2023/07/13 11:50:30;;;;;;;;;;;21.70;67.60;;;;;;5075510;28;19909;-36
2023/07/13 11:52:58;;;;;;;;;;;21.80;67.20;;;;;;5075454;28;19995;-35
2023/07/13 11:55:24;;;;;;;;;;;21.90;66.80;;;;;;5074027;28;19917;-36
2023/07/13 11:57:52;;;;;;;;;;;22.00;66.40;;;;;;5075075;28;19999;-34
2023/07/13 12:00:20;;;;;;;;;;;22.20;65.40;;;;;;5075369;28;19913;-37
2023/07/13 12:02:51;;;;;;;;;;;22.20;65.30;;;;;;5075299;28;19958;-34
2023/07/13 12:05:18;;;;;;;;;;;22.10;65.50;;;;;;5075180;28;20288;-37
2023/07/13 12:07:43;;;;;;;;;;;22.10;65.30;;;;;;5075056;28;19908;-38
2023/07/13 12:10:09;;;;;;;;;;;22.00;65.30;;;;;;5074961;28;20284;-34
2023/07/13 12:12:35;;;;;;;;;;;21.80;65.10;;;;;;5075066;28;19908;-35
2023/07/13 12:15:00;;;;;;;;;;;21.70;65.70;;;;;;5074679;28;20386;-35
2023/07/13 12:17:26;;;;;;;;;;;21.60;66.00;;;;;;5074973;28;19908;-35
2023/07/13 12:19:52;;;;;;;;;;;21.60;66.30;;;;;;5074566;28;19951;-34
2023/07/13 12:22:20;;;;;;;;;;;21.60;66.40;;;;;;5074855;28;20352;-36
2023/07/13 12:24:46;;;;;;;;;;;21.80;66.50;;;;;;5074790;28;20303;-35
2023/07/13 12:27:19;;;;;;;;;;;22.00;66.20;;;;;;5074612;28;19908;-36
2023/07/13 12:30:11;;;;;;;;;;;22.30;65.80;;;;;;5074395;28;19913;-37
2023/07/13 12:32:37;;;;;;;;;;;22.60;65.60;;;;;;5073638;28;20315;-36
2023/07/13 12:35:16;;;;;;;;;;;22.80;65.20;;;;;;5074459;28;20016;-36
2023/07/13 12:37:45;;;;;;;;;;;23.00;64.90;;;;;;5074387;28;19960;-33
2023/07/13 12:40:19;;;;;;;;;;;23.30;64.80;;;;;;5074671;28;20003;-36
2023/07/13 12:42:46;;;;;;;;;;;23.40;64.60;;;;;;5074331;28;19908;-35
2023/07/13 12:45:20;;;;;;;;;;;23.50;64.40;;;;;;5074639;28;19908;-36
2023/07/13 12:47:52;;;;;;;;;;;23.40;64.10;;;;;;5074366;28;20007;-36
2023/07/13 12:50:19;;;;;;;;;;;23.30;63.50;;;;;;5074743;28;19908;-35
2023/07/13 12:52:50;;;;;;;;;;;23.10;63.30;;;;;;5074549;28;19913;-36
2023/07/13 12:55:17;;;;;;;;;;;22.90;63.60;;;;;;5074493;28;19938;-25
2023/07/13 12:57:50;;;;;;;;;;;22.60;64.10;;;;;;5074273;28;20365;-25
2023/07/13 13:00:24;;;;;;;;;;;22.40;63.70;;;;;;5074212;28;20265;-26
2023/07/13 13:02:50;;;;;;;;;;;22.20;64.80;;;;;;5074155;28;19915;-27
2023/07/13 13:05:16;;;;;;;;;;;22.00;64.40;;;;;;5072568;28;19909;-27
2023/07/13 13:07:42;;;;;;;;;;;21.90;64.40;;;;;;5073775;28;19909;-29
2023/07/13 13:10:14;;;;;;;;;;;21.80;64.80;;;;;;5073871;28;20431;-26
2023/07/13 13:12:42;;;;;;;;;;;21.70;64.70;;;;;;5074005;28;19999;-26
2023/07/13 13:15:08;;;;;;;;;;;21.80;64.40;;;;;;5073822;28;19942;-26
2023/07/13 13:17:34;;;;;;;;;;;21.90;64.50;;;;;;5073739;28;19908;-26
2023/07/13 13:19:59;;;;;;;;;;;22.10;64.00;;;;;;5073924;28;19919;-35
2023/07/13 13:22:25;;;;;;;;;;;22.20;64.10;;;;;;5073461;28;20330;-29
2023/07/13 13:24:50;;;;;;;;;;;22.30;64.00;;;;;;5073692;28;19943;-26
2023/07/13 13:27:21;;;;;;;;;;;22.40;64.00;;;;;;5073531;28;19909;-28
2023/07/13 13:29:48;;;;;;;;;;;22.50;64.00;;;;;;5072636;28;19912;-26
2023/07/13 13:32:14;;;;;;;;;;;22.70;63.90;;;;;;5073394;28;19963;-26
2023/07/13 13:34:40;;;;;;;;;;;23.00;63.30;;;;;;5071638;28;20302;-26
2023/07/13 13:37:25;;;;;;;;;;;23.20;63.10;;;;;;5073194;28;19908;-30
2023/07/13 13:39:53;;;;;;;;;;;23.20;62.50;;;;;;5073085;28;19909;-32
2023/07/13 13:42:20;;;;;;;;;;;23.20;62.80;;;;;;5073327;28;19908;-26
2023/07/13 13:44:46;;;;;;;;;;;23.00;63.20;;;;;;5072856;28;19908;-28
2023/07/13 13:47:30;;;;;;;;;;;23.10;63.40;;;;;;5073071;28;19912;-27
2023/07/13 13:49:56;;;;;;;;;;;23.30;63.10;;;;;;5072891;28;19915;-26
2023/07/13 13:52:21;;;;;;;;;;;23.40;63.00;;;;;;5072794;28;19912;-28
2023/07/13 13:54:47;;;;;;;;;;;23.60;62.50;;;;;;5071338;28;19923;-26
2023/07/13 13:57:12;;;;;;;;;;;23.60;62.20;;;;;;5073194;28;20332;-27
2023/07/13 13:59:39;;;;;;;;;;;23.70;61.40;;;;;;5072971;28;20276;-29
2023/07/13 14:02:22;;;;;;;;;;;23.80;59.70;;;;;;5072716;28;19908;-27
2023/07/13 14:04:50;;;;;;;;;;;23.90;57.40;;;;;;5072531;28;19962;-27
2023/07/13 14:07:16;;;;;;;;;;;24.10;58.60;;;;;;5072802;28;19956;-27
2023/07/13 14:09:41;;;;;;;;;;;24.30;58.20;;;;;;5072743;28;20398;-29
2023/07/13 14:12:09;;;;;;;;;;;24.50;58.10;;;;;;5072992;28;20340;-29
2023/07/13 14:14:35;;;;;;;;;;;24.50;57.20;;;;;;5072415;28;19912;-33
2023/07/13 14:17:00;;;;;;;;;;;24.50;56.90;;;;;;5072779;28;19915;-28